Main page
METAR-TAF:

METAR-TAF

Airports :

Kuwait International Airport

Kuwait City, Kuwait

latitude: 29-13N, longitude: 047-59E, elevation: 55 m

Current weather observation

The report was made 45 minutes ago, at 06:00 UTC
Wind 12 kt from the Northwest
Temperature 40°C
Humidity 15%
Pressure 999 hPa
Visibility: 8000 m
Clear sky

METAR: OKBK 180600Z 32012KT 8000 SKC 40/08 Q0999 NOSIG

Time: 09:45 (06:45 UTC)

Forecast

The report was made 2 hours and 0 minutes ago, at 04:45 UTC
Forecast valid from 18 at 06 UTC to 19 at 12 UTC
Wind 10 kt from the North/Northwest with gusts up to 20 kt
Visibility: 7000 m
Clear sky

TAF: OKBK 180445Z 1806/1912 34010G20KT 7000 SKC

Weather observations and forecasts of more than 4000 airports (METAR and TAF reports).

The available stations are represented by yellow and red dots on the map.

Hover mouse over dot to see the name of the station.

Then click to see weather observations and forecasts.

To change the map : click on the green buttons with a black cross to zoom in, on the green button with a dash to zoom out, or on the green arrows for adjacent maps.


METAR-TAF: